sensor_id;sensor_type;location;lat;lon;timestamp;pressure;altitude;pressure_sealevel;temperature;humidity
11912;BME280;6016;41.928;25.556;2023-08-07T00:01:36;98155.56;;;25.71;54.03
11912;BME280;6016;41.928;25.556;2023-08-07T00:04:03;98128.72;;;25.49;52.11
11912;BME280;6016;41.928;25.556;2023-08-07T00:06:30;98140.41;;;25.65;52.86
11912;BME280;6016;41.928;25.556;2023-08-07T00:08:57;98158.84;;;25.73;51.42
11912;BME280;6016;41.928;25.556;2023-08-07T00:11:24;98156.09;;;25.63;51.14
11912;BME280;6016;41.928;25.556;2023-08-07T00:13:50;98164.72;;;25.65;51.43
11912;BME280;6016;41.928;25.556;2023-08-07T00:16:19;98162.28;;;25.63;52.87
11912;BME280;6016;41.928;25.556;2023-08-07T00:18:45;98103.19;;;25.24;53.54
11912;BME280;6016;41.928;25.556;2023-08-07T00:21:12;98135.75;;;25.50;51.44
11912;BME280;6016;41.928;25.556;2023-08-07T00:23:39;98109.09;;;25.21;50.78
11912;BME280;6016;41.928;25.556;2023-08-07T00:26:06;98158.72;;;25.52;50.43
11912;BME280;6016;41.928;25.556;2023-08-07T00:28:32;98115.28;;;25.16;49.79
11912;BME280;6016;41.928;25.556;2023-08-07T00:30:59;98163.72;;;25.33;48.02
11912;BME280;6016;41.928;25.556;2023-08-07T00:33:27;98163.22;;;25.41;51.09
11912;BME280;6016;41.928;25.556;2023-08-07T00:35:54;98124.44;;;25.10;50.63
11912;BME280;6016;41.928;25.556;2023-08-07T00:38:21;98165.53;;;25.22;50.47
11912;BME280;6016;41.928;25.556;2023-08-07T00:40:48;98162.63;;;25.29;50.88
11912;BME280;6016;41.928;25.556;2023-08-07T00:43:14;98110.59;;;25.01;49.00
11912;BME280;6016;41.928;25.556;2023-08-07T00:45:42;98145.56;;;25.23;49.33
11912;BME280;6016;41.928;25.556;2023-08-07T00:48:10;98193.53;;;25.49;48.81
11912;BME280;6016;41.928;25.556;2023-08-07T00:50:39;98191.34;;;25.46;50.45
11912;BME280;6016;41.928;25.556;2023-08-07T00:53:06;98188.97;;;25.54;49.78
11912;BME280;6016;41.928;25.556;2023-08-07T00:55:34;98158.47;;;25.21;48.44
11912;BME280;6016;41.928;25.556;2023-08-07T00:58:01;98195.63;;;25.41;48.49
11912;BME280;6016;41.928;25.556;2023-08-07T01:00:29;98200.75;;;25.43;49.96
11912;BME280;6016;41.928;25.556;2023-08-07T01:02:56;98159.22;;;25.06;48.02
11912;BME280;6016;41.928;25.556;2023-08-07T01:05:24;98209.06;;;25.31;48.82
11912;BME280;6016;41.928;25.556;2023-08-07T01:07:53;98209.09;;;25.36;51.62
11912;BME280;6016;41.928;25.556;2023-08-07T01:10:25;98210.41;;;25.34;48.56
11912;BME280;6016;41.928;25.556;2023-08-07T01:12:52;98209.56;;;25.28;50.12
11912;BME280;6016;41.928;25.556;2023-08-07T01:15:23;98175.94;;;25.03;49.98
11912;BME280;6016;41.928;25.556;2023-08-07T01:17:53;98205.63;;;25.08;49.97
11912;BME280;6016;41.928;25.556;2023-08-07T01:20:20;98217.06;;;25.21;49.32
11912;BME280;6016;41.928;25.556;2023-08-07T01:22:47;98221.38;;;25.17;48.80
11912;BME280;6016;41.928;25.556;2023-08-07T01:25:14;98204.53;;;25.04;49.84
11912;BME280;6016;41.928;25.556;2023-08-07T01:27:46;98208.34;;;25.08;49.04
11912;BME280;6016;41.928;25.556;2023-08-07T01:30:20;98135.25;;;24.50;48.48
11912;BME280;6016;41.928;25.556;2023-08-07T01:32:56;98175.63;;;24.72;47.73
11912;BME280;6016;41.928;25.556;2023-08-07T01:35:28;98227.38;;;24.96;48.28
11912;BME280;6016;41.928;25.556;2023-08-07T01:37:58;98196.13;;;24.73;49.82
11912;BME280;6016;41.928;25.556;2023-08-07T01:40:27;98239.63;;;25.04;50.46
11912;BME280;6016;41.928;25.556;2023-08-07T01:42:54;98223.88;;;24.96;49.42
11912;BME280;6016;41.928;25.556;2023-08-07T01:45:24;98242.34;;;25.09;47.75
11912;BME280;6016;41.928;25.556;2023-08-07T01:47:51;98070.50;;;23.95;49.31
11912;BME280;6016;41.928;25.556;2023-08-07T01:50:19;98253.31;;;24.97;49.19
11912;BME280;6016;41.928;25.556;2023-08-07T01:52:45;98202.75;;;24.60;49.16
11912;BME280;6016;41.928;25.556;2023-08-07T01:55:15;98238.72;;;24.71;49.02
11912;BME280;6016;41.928;25.556;2023-08-07T01:57:42;98241.56;;;24.81;49.06
11912;BME280;6016;41.928;25.556;2023-08-07T02:00:10;98257.47;;;24.83;49.00
11912;BME280;6016;41.928;25.556;2023-08-07T02:02:37;98246.47;;;24.90;49.65
11912;BME280;6016;41.928;25.556;2023-08-07T02:05:05;98246.34;;;25.02;50.71
11912;BME280;6016;41.928;25.556;2023-08-07T02:07:32;98251.22;;;25.05;49.29
11912;BME280;6016;41.928;25.556;2023-08-07T02:09:59;98263.06;;;25.04;50.01
11912;BME280;6016;41.928;25.556;2023-08-07T02:12:27;98217.47;;;24.75;50.06
11912;BME280;6016;41.928;25.556;2023-08-07T02:14:57;98265.16;;;24.96;50.71
11912;BME280;6016;41.928;25.556;2023-08-07T02:17:24;98259.94;;;24.84;49.17
11912;BME280;6016;41.928;25.556;2023-08-07T02:19:51;98268.38;;;24.93;50.49
11912;BME280;6016;41.928;25.556;2023-08-07T02:22:18;98249.66;;;24.81;50.31
11912;BME280;6016;41.928;25.556;2023-08-07T02:24:45;98097.84;;;23.81;50.10
11912;BME280;6016;41.928;25.556;2023-08-07T02:27:12;98271.94;;;24.99;50.89
11912;BME280;6016;41.928;25.556;2023-08-07T02:29:40;98116.22;;;24.07;50.89
11912;BME280;6016;41.928;25.556;2023-08-07T02:32:07;98273.97;;;24.86;49.92
11912;BME280;6016;41.928;25.556;2023-08-07T02:34:34;97859.47;;;21.95;50.41
11912;BME280;6016;41.928;25.556;2023-08-07T02:37:01;98288.97;;;24.77;51.49
11912;BME280;6016;41.928;25.556;2023-08-07T02:39:28;98242.34;;;24.54;50.20
11912;BME280;6016;41.928;25.556;2023-08-07T02:41:54;98276.78;;;24.75;51.06
11912;BME280;6016;41.928;25.556;2023-08-07T02:44:21;98287.72;;;24.63;50.61
11912;BME280;6016;41.928;25.556;2023-08-07T02:46:49;98241.53;;;24.32;52.00
11912;BME280;6016;41.928;25.556;2023-08-07T02:49:16;98301.19;;;24.63;51.21
11912;BME280;6016;41.928;25.556;2023-08-07T02:51:43;98253.75;;;24.39;51.03
11912;BME280;6016;41.928;25.556;2023-08-07T02:54:09;98310.22;;;24.51;50.79
11912;BME280;6016;41.928;25.556;2023-08-07T02:56:36;98271.03;;;24.21;51.35
11912;BME280;6016;41.928;25.556;2023-08-07T02:59:03;98323.00;;;24.39;51.44
11912;BME280;6016;41.928;25.556;2023-08-07T03:01:30;98338.38;;;24.38;51.43
11912;BME280;6016;41.928;25.556;2023-08-07T03:03:59;98154.56;;;23.18;51.99
11912;BME280;6016;41.928;25.556;2023-08-07T03:06:25;98342.75;;;24.44;53.00
11912;BME280;6016;41.928;25.556;2023-08-07T03:08:52;98340.75;;;24.57;51.46
11912;BME280;6016;41.928;25.556;2023-08-07T03:11:19;98334.06;;;24.37;51.67
11912;BME280;6016;41.928;25.556;2023-08-07T03:13:46;98351.56;;;24.57;51.04
11912;BME280;6016;41.928;25.556;2023-08-07T03:16:14;98352.38;;;24.57;52.48
11912;BME280;6016;41.928;25.556;2023-08-07T03:18:41;98351.94;;;24.66;52.04
11912;BME280;6016;41.928;25.556;2023-08-07T03:21:09;98352.25;;;24.69;52.54
11912;BME280;6016;41.928;25.556;2023-08-07T03:23:36;98291.69;;;24.33;51.88
11912;BME280;6016;41.928;25.556;2023-08-07T03:26:03;98334.31;;;24.58;51.05
11912;BME280;6016;41.928;25.556;2023-08-07T03:28:30;98359.53;;;24.69;51.49
11912;BME280;6016;41.928;25.556;2023-08-07T03:30:57;98371.41;;;24.68;51.29
11912;BME280;6016;41.928;25.556;2023-08-07T03:33:24;98321.78;;;24.47;52.35
11912;BME280;6016;41.928;25.556;2023-08-07T03:35:51;98365.53;;;24.76;51.84
11912;BME280;6016;41.928;25.556;2023-08-07T03:38:19;98211.63;;;23.71;50.76
11912;BME280;6016;41.928;25.556;2023-08-07T03:40:46;98316.00;;;24.38;51.38
11912;BME280;6016;41.928;25.556;2023-08-07T03:43:13;98297.19;;;24.21;51.91
11912;BME280;6016;41.928;25.556;2023-08-07T03:45:40;98365.72;;;24.69;52.15
11912;BME280;6016;41.928;25.556;2023-08-07T03:48:07;98351.25;;;24.53;51.09
11912;BME280;6016;41.928;25.556;2023-08-07T03:50:34;98369.50;;;24.68;51.82
11912;BME280;6016;41.928;25.556;2023-08-07T03:53:03;98372.47;;;24.67;52.02
11912;BME280;6016;41.928;25.556;2023-08-07T03:55:31;98378.16;;;24.70;51.74
11912;BME280;6016;41.928;25.556;2023-08-07T03:57:58;98374.75;;;24.58;52.32
11912;BME280;6016;41.928;25.556;2023-08-07T04:00:25;98380.75;;;24.60;51.35
11912;BME280;6016;41.928;25.556;2023-08-07T04:02:51;98376.16;;;24.61;51.11
11912;BME280;6016;41.928;25.556;2023-08-07T04:05:18;98378.34;;;24.64;51.96
11912;BME280;6016;41.928;25.556;2023-08-07T04:07:45;98337.25;;;24.34;51.96
11912;BME280;6016;41.928;25.556;2023-08-07T04:10:12;98352.38;;;24.35;52.13
11912;BME280;6016;41.928;25.556;2023-08-07T04:12:40;98348.03;;;24.34;52.77
11912;BME280;6016;41.928;25.556;2023-08-07T04:15:07;98114.16;;;22.79;52.48
11912;BME280;6016;41.928;25.556;2023-08-07T04:17:35;98379.78;;;24.49;52.37
11912;BME280;6016;41.928;25.556;2023-08-07T04:20:03;98373.34;;;24.33;51.99
11912;BME280;6016;41.928;25.556;2023-08-07T04:22:30;98383.22;;;24.44;52.14
11912;BME280;6016;41.928;25.556;2023-08-07T04:24:57;98235.66;;;23.39;51.26
11912;BME280;6016;41.928;25.556;2023-08-07T04:27:25;98371.41;;;24.28;52.16
11912;BME280;6016;41.928;25.556;2023-08-07T04:29:54;98385.28;;;24.37;52.77
11912;BME280;6016;41.928;25.556;2023-08-07T04:32:21;98392.81;;;24.35;52.91
11912;BME280;6016;41.928;25.556;2023-08-07T04:34:47;98397.38;;;24.35;52.48
11912;BME280;6016;41.928;25.556;2023-08-07T04:37:14;98402.25;;;24.38;52.90
11912;BME280;6016;41.928;25.556;2023-08-07T04:39:41;98395.81;;;24.39;52.44
11912;BME280;6016;41.928;25.556;2023-08-07T04:42:08;98404.66;;;24.34;52.66
11912;BME280;6016;41.928;25.556;2023-08-07T04:44:34;98403.31;;;24.37;52.55
11912;BME280;6016;41.928;25.556;2023-08-07T04:47:03;98312.50;;;23.81;52.60
11912;BME280;6016;41.928;25.556;2023-08-07T04:49:30;98410.09;;;24.39;51.66
11912;BME280;6016;41.928;25.556;2023-08-07T04:51:57;98413.03;;;24.38;51.91
11912;BME280;6016;41.928;25.556;2023-08-07T04:54:24;98416.06;;;24.41;51.94
11912;BME280;6016;41.928;25.556;2023-08-07T04:56:51;98417.38;;;24.39;51.77
11912;BME280;6016;41.928;25.556;2023-08-07T04:59:18;98413.47;;;24.47;52.12
11912;BME280;6016;41.928;25.556;2023-08-07T05:01:45;98427.56;;;24.54;51.11
11912;BME280;6016;41.928;25.556;2023-08-07T05:04:13;98389.22;;;24.29;51.91
11912;BME280;6016;41.928;25.556;2023-08-07T05:06:40;98420.19;;;24.66;51.59
11912;BME280;6016;41.928;25.556;2023-08-07T05:09:07;98349.63;;;24.13;51.95
11912;BME280;6016;41.928;25.556;2023-08-07T05:11:34;98445.94;;;24.57;52.02
11912;BME280;6016;41.928;25.556;2023-08-07T05:14:00;98401.63;;;24.30;50.41
11912;BME280;6016;41.928;25.556;2023-08-07T05:16:27;98396.88;;;24.38;52.19
11912;BME280;6016;41.928;25.556;2023-08-07T05:18:54;98295.84;;;23.67;51.35
11912;BME280;6016;41.928;25.556;2023-08-07T05:21:22;98433.69;;;24.49;51.74
11912;BME280;6016;41.928;25.556;2023-08-07T05:23:49;98326.13;;;23.74;52.33
11912;BME280;6016;41.928;25.556;2023-08-07T05:26:18;98364.22;;;24.00;52.22
11912;BME280;6016;41.928;25.556;2023-08-07T05:28:45;98449.41;;;24.52;51.26
11912;BME280;6016;41.928;25.556;2023-08-07T05:31:12;98405.16;;;24.14;50.62
11912;BME280;6016;41.928;25.556;2023-08-07T05:33:39;98448.63;;;24.57;51.84
11912;BME280;6016;41.928;25.556;2023-08-07T05:36:06;98397.47;;;24.23;51.34
11912;BME280;6016;41.928;25.556;2023-08-07T05:38:34;98446.81;;;24.63;50.96
11912;BME280;6016;41.928;25.556;2023-08-07T05:41:01;98452.97;;;24.58;50.85
11912;BME280;6016;41.928;25.556;2023-08-07T05:43:28;98431.84;;;24.33;49.40
11912;BME280;6016;41.928;25.556;2023-08-07T05:45:55;98467.09;;;24.65;51.48
11912;BME280;6016;41.928;25.556;2023-08-07T05:48:22;98463.91;;;24.68;48.81
11912;BME280;6016;41.928;25.556;2023-08-07T05:50:49;98468.81;;;24.71;50.83
11912;BME280;6016;41.928;25.556;2023-08-07T05:53:17;98463.00;;;24.80;50.02
11912;BME280;6016;41.928;25.556;2023-08-07T05:55:45;98423.56;;;24.56;48.80
11912;BME280;6016;41.928;25.556;2023-08-07T05:58:12;98428.13;;;24.56;48.98
11912;BME280;6016;41.928;25.556;2023-08-07T06:00:39;98471.56;;;24.94;50.47
11912;BME280;6016;41.928;25.556;2023-08-07T06:03:05;98460.50;;;24.95;49.60
11912;BME280;6016;41.928;25.556;2023-08-07T06:05:33;98461.66;;;24.99;48.96
11912;BME280;6016;41.928;25.556;2023-08-07T06:08:00;98382.47;;;24.49;49.11
11912;BME280;6016;41.928;25.556;2023-08-07T06:10:27;98310.22;;;24.07;49.84
11912;BME280;6016;41.928;25.556;2023-08-07T06:12:55;98481.84;;;25.19;49.46
11912;BME280;6016;41.928;25.556;2023-08-07T06:15:22;98469.03;;;25.32;49.42
11912;BME280;6016;41.928;25.556;2023-08-07T06:17:49;98336.16;;;24.52;49.06
11912;BME280;6016;41.928;25.556;2023-08-07T06:20:17;98474.88;;;25.46;49.45
11912;BME280;6016;41.928;25.556;2023-08-07T06:22:44;98447.19;;;25.33;48.68
11912;BME280;6016;41.928;25.556;2023-08-07T06:25:11;98478.78;;;25.55;48.52
11912;BME280;6016;41.928;25.556;2023-08-07T06:27:37;98467.16;;;25.54;47.12
11912;BME280;6016;41.928;25.556;2023-08-07T06:30:06;98475.50;;;25.53;47.28
11912;BME280;6016;41.928;25.556;2023-08-07T06:32:33;98485.00;;;25.55;47.27
11912;BME280;6016;41.928;25.556;2023-08-07T06:35:02;98478.72;;;25.50;47.57
11912;BME280;6016;41.928;25.556;2023-08-07T06:37:31;98473.88;;;25.52;47.34
11912;BME280;6016;41.928;25.556;2023-08-07T06:39:57;98420.13;;;25.28;48.25
11912;BME280;6016;41.928;25.556;2023-08-07T06:42:24;98469.97;;;25.65;47.70
11912;BME280;6016;41.928;25.556;2023-08-07T06:44:51;98426.16;;;25.35;47.71
11912;BME280;6016;41.928;25.556;2023-08-07T06:47:19;98483.59;;;25.75;46.83
11912;BME280;6016;41.928;25.556;2023-08-07T06:49:46;98483.38;;;25.82;46.89
11912;BME280;6016;41.928;25.556;2023-08-07T06:52:13;98481.53;;;25.88;46.24
11912;BME280;6016;41.928;25.556;2023-08-07T06:54:40;98482.97;;;25.95;47.24
11912;BME280;6016;41.928;25.556;2023-08-07T06:57:06;98474.56;;;25.97;47.66
11912;BME280;6016;41.928;25.556;2023-08-07T06:59:33;98479.50;;;26.00;45.17
11912;BME280;6016;41.928;25.556;2023-08-07T07:02:00;98479.53;;;26.05;45.16
11912;BME280;6016;41.928;25.556;2023-08-07T07:04:28;98486.56;;;26.06;45.11
11912;BME280;6016;41.928;25.556;2023-08-07T07:06:55;98342.00;;;25.16;45.11
11912;BME280;6016;41.928;25.556;2023-08-07T07:09:21;98433.06;;;25.76;45.59
11912;BME280;6016;41.928;25.556;2023-08-07T07:11:48;98492.03;;;26.11;43.92
11912;BME280;6016;41.928;25.556;2023-08-07T07:14:15;98492.69;;;26.24;44.51
11912;BME280;6016;41.928;25.556;2023-08-07T07:16:42;98495.44;;;26.29;45.51
11912;BME280;6016;41.928;25.556;2023-08-07T07:19:09;98427.53;;;25.93;45.75
11912;BME280;6016;41.928;25.556;2023-08-07T07:21:37;98495.22;;;26.41;44.61
11912;BME280;6016;41.928;25.556;2023-08-07T07:24:04;98459.84;;;26.15;43.42
11912;BME280;6016;41.928;25.556;2023-08-07T07:26:31;98330.06;;;25.39;43.52
11912;BME280;6016;41.928;25.556;2023-08-07T07:28:58;98444.16;;;26.12;43.69
11912;BME280;6016;41.928;25.556;2023-08-07T07:31:25;98488.28;;;26.50;43.12
11912;BME280;6016;41.928;25.556;2023-08-07T07:33:52;98506.53;;;26.71;43.06
11912;BME280;6016;41.928;25.556;2023-08-07T07:36:18;98498.47;;;26.76;43.22
11912;BME280;6016;41.928;25.556;2023-08-07T07:38:47;98506.06;;;26.84;43.36
11912;BME280;6016;41.928;25.556;2023-08-07T07:41:13;98435.78;;;26.46;42.50
11912;BME280;6016;41.928;25.556;2023-08-07T07:43:40;98382.34;;;26.21;43.37
11912;BME280;6016;41.928;25.556;2023-08-07T07:46:07;98484.22;;;26.91;43.92
11912;BME280;6016;41.928;25.556;2023-08-07T07:48:33;98491.84;;;27.04;42.20
11912;BME280;6016;41.928;25.556;2023-08-07T07:51:01;98468.56;;;26.98;41.43
11912;BME280;6016;41.928;25.556;2023-08-07T07:53:28;98477.81;;;27.13;42.58
11912;BME280;6016;41.928;25.556;2023-08-07T07:55:56;98497.94;;;27.43;42.18
11912;BME280;6016;41.928;25.556;2023-08-07T07:58:23;98491.53;;;27.59;41.18
11912;BME280;6016;41.928;25.556;2023-08-07T08:00:50;98499.16;;;27.73;40.03
11912;BME280;6016;41.928;25.556;2023-08-07T08:03:19;98428.59;;;27.36;38.96
11912;BME280;6016;41.928;25.556;2023-08-07T08:05:48;98497.28;;;27.99;38.86
11912;BME280;6016;41.928;25.556;2023-08-07T08:08:15;98445.75;;;27.73;39.12
11912;BME280;6016;41.928;25.556;2023-08-07T08:10:42;98494.03;;;28.07;38.82
11912;BME280;6016;41.928;25.556;2023-08-07T08:13:10;98460.44;;;27.93;39.48
11912;BME280;6016;41.928;25.556;2023-08-07T08:15:37;98494.38;;;28.21;39.67
11912;BME280;6016;41.928;25.556;2023-08-07T08:18:04;98491.38;;;28.28;38.64
11912;BME280;6016;41.928;25.556;2023-08-07T08:20:31;98495.41;;;28.31;40.09
11912;BME280;6016;41.928;25.556;2023-08-07T08:22:58;98491.09;;;28.30;39.07
11912;BME280;6016;41.928;25.556;2023-08-07T08:25:25;98485.69;;;28.25;38.23
11912;BME280;6016;41.928;25.556;2023-08-07T08:27:52;98489.47;;;28.34;38.53
11912;BME280;6016;41.928;25.556;2023-08-07T08:30:21;98499.50;;;28.44;37.48
11912;BME280;6016;41.928;25.556;2023-08-07T08:35:28;98437.38;;;28.27;38.30
11912;BME280;6016;41.928;25.556;2023-08-07T08:37:55;98496.75;;;28.64;37.19
11912;BME280;6016;41.928;25.556;2023-08-07T08:40:23;98485.34;;;28.68;36.74
11912;BME280;6016;41.928;25.556;2023-08-07T08:42:50;98500.28;;;28.65;37.62
11912;BME280;6016;41.928;25.556;2023-08-07T08:45:20;98486.41;;;28.72;37.30
11912;BME280;6016;41.928;25.556;2023-08-07T08:47:49;98457.97;;;28.59;36.58
11912;BME280;6016;41.928;25.556;2023-08-07T08:50:17;98473.38;;;28.74;37.52
11912;BME280;6016;41.928;25.556;2023-08-07T08:52:46;98487.47;;;28.97;37.36
11912;BME280;6016;41.928;25.556;2023-08-07T08:55:14;98478.25;;;28.87;36.38
11912;BME280;6016;41.928;25.556;2023-08-07T08:57:41;98396.13;;;28.40;36.99
11912;BME280;6016;41.928;25.556;2023-08-07T09:00:10;98486.06;;;29.10;35.56
11912;BME280;6016;41.928;25.556;2023-08-07T09:02:44;98477.88;;;29.15;36.72
11912;BME280;6016;41.928;25.556;2023-08-07T09:05:11;98486.84;;;29.20;36.58
11912;BME280;6016;41.928;25.556;2023-08-07T09:07:37;98474.88;;;29.22;37.05
11912;BME280;6016;41.928;25.556;2023-08-07T09:10:08;98434.28;;;28.90;35.19
11912;BME280;6016;41.928;25.556;2023-08-07T09:12:39;98383.59;;;28.55;35.62
11912;BME280;6016;41.928;25.556;2023-08-07T09:15:08;98470.25;;;29.22;34.71
11912;BME280;6016;41.928;25.556;2023-08-07T09:17:39;98345.63;;;28.49;35.04
11912;BME280;6016;41.928;25.556;2023-08-07T09:20:07;98472.63;;;29.44;35.65
11912;BME280;6016;41.928;25.556;2023-08-07T09:22:37;98466.59;;;29.53;36.13
11912;BME280;6016;41.928;25.556;2023-08-07T09:25:06;98411.28;;;29.28;35.10
11912;BME280;6016;41.928;25.556;2023-08-07T09:27:35;98456.78;;;29.57;34.84
11912;BME280;6016;41.928;25.556;2023-08-07T09:30:05;98462.63;;;29.74;35.38
11912;BME280;6016;41.928;25.556;2023-08-07T09:32:33;98473.97;;;29.87;35.61
11912;BME280;6016;41.928;25.556;2023-08-07T09:35:02;98460.03;;;29.94;34.44
11912;BME280;6016;41.928;25.556;2023-08-07T09:37:31;98459.44;;;30.02;33.97
11912;BME280;6016;41.928;25.556;2023-08-07T09:40:00;98436.47;;;29.84;33.71
11912;BME280;6016;41.928;25.556;2023-08-07T09:42:30;98420.88;;;29.95;32.84
11912;BME280;6016;41.928;25.556;2023-08-07T09:44:59;98455.63;;;30.38;34.13
11912;BME280;6016;41.928;25.556;2023-08-07T09:47:27;98454.06;;;30.56;32.94
11912;BME280;6016;41.928;25.556;2023-08-07T09:49:54;98368.97;;;30.21;33.42
11912;BME280;6016;41.928;25.556;2023-08-07T09:52:21;98454.16;;;30.99;31.80
11912;BME280;6016;41.928;25.556;2023-08-07T09:54:50;98449.41;;;31.10;33.26
11912;BME280;6016;41.928;25.556;2023-08-07T09:57:19;98284.44;;;30.17;33.06
11912;BME280;6016;41.928;25.556;2023-08-07T09:59:49;98449.38;;;31.35;32.62
11912;BME280;6016;41.928;25.556;2023-08-07T10:02:16;98431.75;;;31.27;32.65
11912;BME280;6016;41.928;25.556;2023-08-07T10:04:44;98424.19;;;31.24;32.49
11912;BME280;6016;41.928;25.556;2023-08-07T10:07:11;98435.16;;;31.38;31.83
11912;BME280;6016;41.928;25.556;2023-08-07T10:09:41;98444.50;;;31.51;32.31
11912;BME280;6016;41.928;25.556;2023-08-07T10:12:09;98436.09;;;31.47;32.78
11912;BME280;6016;41.928;25.556;2023-08-07T10:14:36;98450.69;;;31.56;31.06
11912;BME280;6016;41.928;25.556;2023-08-07T10:17:05;98439.00;;;31.56;31.68
11912;BME280;6016;41.928;25.556;2023-08-07T10:19:32;98429.34;;;31.64;32.70
11912;BME280;6016;41.928;25.556;2023-08-07T10:21:59;98430.34;;;31.68;32.63
11912;BME280;6016;41.928;25.556;2023-08-07T10:24:26;98433.34;;;31.66;32.37
11912;BME280;6016;41.928;25.556;2023-08-07T10:26:54;98431.47;;;31.67;33.26
11912;BME280;6016;41.928;25.556;2023-08-07T10:29:22;98415.19;;;31.62;31.52
11912;BME280;6016;41.928;25.556;2023-08-07T10:31:51;98432.19;;;31.72;30.33
11912;BME280;6016;41.928;25.556;2023-08-07T10:34:21;98429.38;;;31.78;31.30
11912;BME280;6016;41.928;25.556;2023-08-07T10:36:49;98409.56;;;31.72;30.81
11912;BME280;6016;41.928;25.556;2023-08-07T10:39:16;98428.00;;;31.80;30.27
11912;BME280;6016;41.928;25.556;2023-08-07T10:41:45;98366.66;;;31.44;30.19
11912;BME280;6016;41.928;25.556;2023-08-07T10:44:19;98419.66;;;31.71;32.29
11912;BME280;6016;41.928;25.556;2023-08-07T10:46:50;98353.59;;;31.22;31.17
11912;BME280;6016;41.928;25.556;2023-08-07T10:49:35;98380.34;;;31.39;32.36
11912;BME280;6016;41.928;25.556;2023-08-07T10:52:04;98390.13;;;31.40;31.37
11912;BME280;6016;41.928;25.556;2023-08-07T10:54:37;98398.09;;;31.56;32.92
11912;BME280;6016;41.928;25.556;2023-08-07T10:57:10;98374.06;;;31.58;32.63
11912;BME280;6016;41.928;25.556;2023-08-07T10:59:37;98382.84;;;31.55;30.36
11912;BME280;6016;41.928;25.556;2023-08-07T11:02:07;98336.66;;;31.06;32.78
11912;BME280;6016;41.928;25.556;2023-08-07T11:04:39;98093.41;;;29.76;32.11
11912;BME280;6016;41.928;25.556;2023-08-07T11:07:06;98407.00;;;31.81;31.92
11912;BME280;6016;41.928;25.556;2023-08-07T11:09:33;98401.84;;;31.79;32.59
11912;BME280;6016;41.928;25.556;2023-08-07T11:12:00;98294.91;;;31.11;31.34
11912;BME280;6016;41.928;25.556;2023-08-07T11:14:27;98364.69;;;31.64;31.85
11912;BME280;6016;41.928;25.556;2023-08-07T11:16:54;98390.97;;;31.93;32.11
11912;BME280;6016;41.928;25.556;2023-08-07T11:19:22;98384.41;;;31.94;32.19
11912;BME280;6016;41.928;25.556;2023-08-07T11:21:50;98395.72;;;32.02;32.23
11912;BME280;6016;41.928;25.556;2023-08-07T11:24:17;98390.88;;;31.98;31.75
11912;BME280;6016;41.928;25.556;2023-08-07T11:26:47;98390.28;;;32.02;32.00
11912;BME280;6016;41.928;25.556;2023-08-07T11:29:16;98373.50;;;31.94;33.41
11912;BME280;6016;41.928;25.556;2023-08-07T11:31:45;98388.88;;;32.04;32.98
11912;BME280;6016;41.928;25.556;2023-08-07T11:34:12;98383.41;;;32.04;33.32
11912;BME280;6016;41.928;25.556;2023-08-07T11:36:42;98391.88;;;32.03;33.13
11912;BME280;6016;41.928;25.556;2023-08-07T11:39:11;98333.06;;;31.63;32.12
11912;BME280;6016;41.928;25.556;2023-08-07T11:41:38;98377.75;;;32.00;32.59
11912;BME280;6016;41.928;25.556;2023-08-07T11:44:08;98295.16;;;31.48;32.59
11912;BME280;6016;41.928;25.556;2023-08-07T11:46:35;98357.91;;;31.95;31.39
11912;BME280;6016;41.928;25.556;2023-08-07T11:49:03;98300.13;;;31.60;31.90
11912;BME280;6016;41.928;25.556;2023-08-07T11:51:31;98370.78;;;32.08;33.51
11912;BME280;6016;41.928;25.556;2023-08-07T11:53:58;98347.81;;;31.95;31.41
11912;BME280;6016;41.928;25.556;2023-08-07T11:56:27;98366.84;;;32.14;32.34
11912;BME280;6016;41.928;25.556;2023-08-07T11:58:54;98339.13;;;32.07;32.21
11912;BME280;6016;41.928;25.556;2023-08-07T12:01:22;98327.84;;;32.00;32.32
11912;BME280;6016;41.928;25.556;2023-08-07T12:03:53;98358.78;;;32.23;32.74
11912;BME280;6016;41.928;25.556;2023-08-07T12:06:21;98356.47;;;32.31;31.35
11912;BME280;6016;41.928;25.556;2023-08-07T12:08:50;98359.63;;;32.38;32.14
11912;BME280;6016;41.928;25.556;2023-08-07T12:11:17;98335.03;;;32.24;31.44
11912;BME280;6016;41.928;25.556;2023-08-07T12:13:47;98350.31;;;32.39;32.74
11912;BME280;6016;41.928;25.556;2023-08-07T12:16:15;98228.22;;;31.55;33.47
11912;BME280;6016;41.928;25.556;2023-08-07T12:18:43;98343.31;;;32.33;31.55
11912;BME280;6016;41.928;25.556;2023-08-07T12:21:10;98357.31;;;32.45;32.79
11912;BME280;6016;41.928;25.556;2023-08-07T12:23:37;98298.41;;;32.11;32.66
11912;BME280;6016;41.928;25.556;2023-08-07T12:26:04;98357.31;;;32.45;32.78
11912;BME280;6016;41.928;25.556;2023-08-07T12:28:32;98313.38;;;32.27;33.69
11912;BME280;6016;41.928;25.556;2023-08-07T12:31:01;98321.28;;;32.29;31.97
11912;BME280;6016;41.928;25.556;2023-08-07T12:33:28;98274.16;;;31.95;31.10
11912;BME280;6016;41.928;25.556;2023-08-07T12:35:56;98327.13;;;32.22;31.37
11912;BME280;6016;41.928;25.556;2023-08-07T12:38:22;98351.91;;;32.40;32.33
11912;BME280;6016;41.928;25.556;2023-08-07T12:40:49;98203.47;;;31.52;32.02
11912;BME280;6016;41.928;25.556;2023-08-07T12:43:17;98313.78;;;32.21;30.38
11912;BME280;6016;41.928;25.556;2023-08-07T12:45:43;98344.56;;;32.40;31.61
11912;BME280;6016;41.928;25.556;2023-08-07T12:48:12;98335.47;;;32.45;32.00
11912;BME280;6016;41.928;25.556;2023-08-07T12:50:39;98338.19;;;32.45;30.75
11912;BME280;6016;41.928;25.556;2023-08-07T12:53:06;98072.06;;;30.80;32.34
11912;BME280;6016;41.928;25.556;2023-08-07T12:55:33;98340.81;;;32.50;32.77
11912;BME280;6016;41.928;25.556;2023-08-07T12:58:00;98340.41;;;32.43;33.22
11912;BME280;6016;41.928;25.556;2023-08-07T13:00:27;98338.19;;;32.45;31.84
11912;BME280;6016;41.928;25.556;2023-08-07T13:02:54;98341.22;;;32.44;31.40
11912;BME280;6016;41.928;25.556;2023-08-07T13:05:22;98215.00;;;31.77;30.58